Time;durP1;ratioP1;P1;durP2;ratioP2;P2;SDS_P1;SDS_P2;PMS_P1;PMS_P2;Temp;Humidity;BMP_temperature;BMP_pressure;BME280_temperature;BME280_humidity;BME280_pressure;Samples;Min_cycle;Max_cycle;Signal;HPM_P1;HPM_P2
2023/11/23 00:01:44;;;;;;;4.47;2.90;;;;;;;13.32;61.29;99211.16;4973580;28;20027;-76
2023/11/23 00:04:09;;;;;;;5.10;2.97;;;;;;;13.28;61.19;99214.97;4973831;28;20458;-75
2023/11/23 00:06:35;;;;;;;5.03;2.92;;;;;;;13.29;61.28;99211.41;4989557;28;20102;-75
2023/11/23 00:09:00;;;;;;;7.20;3.17;;;;;;;13.27;60.96;99218.56;4974472;28;20034;-75
2023/11/23 00:11:26;;;;;;;6.60;3.42;;;;;;;13.20;61.41;99216.41;4973295;28;20031;-75
2023/11/23 00:13:52;;;;;;;4.25;3.03;;;;;;;13.20;61.42;99215.56;4973841;28;20174;-75
2023/11/23 00:16:17;;;;;;;5.43;2.97;;;;;;;13.21;61.55;99225.94;4973181;28;20113;-75
2023/11/23 00:18:43;;;;;;;6.03;3.10;;;;;;;13.19;61.52;99230.47;4973205;28;20026;-76
2023/11/23 00:21:09;;;;;;;4.63;2.90;;;;;;;13.15;61.39;99223.78;4956960;28;20035;-75
2023/11/23 00:23:34;;;;;;;5.38;3.30;;;;;;;13.20;61.63;99236.53;4973166;28;20487;-75
2023/11/23 00:26:03;;;;;;;4.00;2.80;;;;;;;13.15;61.49;99229.03;4973106;28;20078;-76
2023/11/23 00:28:28;;;;;;;4.88;2.78;;;;;;;13.15;61.72;99238.69;4973029;28;20541;-74
2023/11/23 00:30:54;;;;;;;4.50;2.90;;;;;;;13.15;61.53;99249.19;4972953;28;20026;-74
2023/11/23 00:33:20;;;;;;;6.72;2.83;;;;;;;13.15;61.27;99238.69;4972813;28;20170;-76
2023/11/23 00:35:45;;;;;;;5.00;3.22;;;;;;;13.18;61.09;99241.06;4988764;28;20031;-75
2023/11/23 00:38:16;;;;;;;4.80;3.00;;;;;;;13.16;61.66;99241.19;4973081;28;20030;-74
2023/11/23 00:40:41;;;;;;;3.85;2.75;;;;;;;13.16;61.43;99251.69;4973199;28;20039;-74
2023/11/23 00:43:10;;;;;;;3.88;2.90;;;;;;;13.19;61.56;99254.06;4973399;28;20065;-74
2023/11/23 00:45:37;;;;;;;5.00;3.20;;;;;;;13.17;61.46;99253.38;4973720;28;20078;-74
2023/11/23 00:48:03;;;;;;;4.50;2.75;;;;;;;13.14;61.63;99250.97;4973254;28;20043;-74
2023/11/23 00:50:28;;;;;;;3.92;2.92;;;;;;;13.16;61.43;99254.31;4956489;28;20402;-74
2023/11/23 00:52:54;;;;;;;5.10;2.88;;;;;;;13.12;61.18;99250.25;4988992;28;20039;-75
2023/11/23 00:55:20;;;;;;;6.78;3.08;;;;;;;13.16;61.38;99262.16;4972634;28;20027;-76
2023/11/23 00:57:46;;;;;;;5.55;3.00;;;;;;;13.18;61.24;99262.06;4956481;28;20552;-75
2023/11/23 01:00:16;;;;;;;5.28;3.30;;;;;;;13.14;61.25;99250.13;4973745;28;20027;-75
2023/11/23 01:02:43;;;;;;;5.68;3.20;;;;;;;13.16;61.45;99254.31;4972416;28;20038;-75
2023/11/23 01:05:11;;;;;;;4.18;2.95;;;;;;;13.18;61.39;99257.63;4972318;28;20038;-75
2023/11/23 01:07:37;;;;;;;;;;;;;;;13.18;61.33;99262.06;4973647;28;20558;-74
2023/11/23 01:10:05;;;;;;;4.75;2.88;;;;;;;13.13;61.41;99258.97;4972361;28;19919;-76
2023/11/23 01:12:31;;;;;;;7.82;3.45;;;;;;;13.15;61.21;99264.91;4988251;28;20443;-75
2023/11/23 01:14:56;;;;;;;5.47;3.10;;;;;;;13.16;61.60;99258.72;4972360;28;20035;-75
2023/11/23 01:17:22;;;;;;;5.43;3.15;;;;;;;13.15;61.08;99260.50;4973438;28;20109;-74
2023/11/23 01:19:47;;;;;;;4.78;2.88;;;;;;;13.11;61.24;99251.22;4972477;28;20039;-74
2023/11/23 01:22:13;;;;;;;5.30;3.20;;;;;;;13.14;61.31;99255.38;4955998;28;20059;-74
2023/11/23 01:24:39;;;;;;;4.75;3.00;;;;;;;13.10;61.21;99267.06;4956118;28;20127;-76
2023/11/23 01:27:05;;;;;;;4.88;3.22;;;;;;;13.09;61.27;99262.75;4972701;28;20047;-75
2023/11/23 01:29:30;;;;;;;4.57;3.45;;;;;;;13.08;61.30;99266.34;4972269;28;20126;-75
2023/11/23 01:31:55;;;;;;;5.90;3.22;;;;;;;13.05;61.43;99266.59;4972129;28;20495;-74
2023/11/23 01:34:21;;;;;;;4.95;3.05;;;;;;;13.03;61.34;99274.59;4972412;28;20101;-74
2023/11/23 01:36:46;;;;;;;4.82;3.28;;;;;;;13.02;61.42;99271.09;4972520;28;20490;-76
2023/11/23 01:39:12;;;;;;;4.55;3.10;;;;;;;12.96;61.43;99270.75;4988635;28;20038;-76
2023/11/23 01:41:38;;;;;;;5.93;3.25;;;;;;;12.97;61.40;99277.69;4972005;28;20065;-75
2023/11/23 01:44:04;;;;;;;4.68;3.13;;;;;;;13.00;61.46;99288.75;4971956;28;20173;-74
2023/11/23 01:46:30;;;;;;;4.93;3.42;;;;;;;13.01;61.58;99286.94;4971977;28;20478;-75
2023/11/23 01:48:55;;;;;;;5.97;3.10;;;;;;;12.98;61.40;99288.03;4973618;28;20129;-75
2023/11/23 01:51:21;;;;;;;5.93;3.35;;;;;;;12.94;61.61;99285.78;4975976;28;20101;-76
2023/11/23 01:53:46;;;;;;;6.10;3.20;;;;;;;12.97;61.53;99303.88;4959585;28;20026;-75
2023/11/23 01:56:12;;;;;;;4.53;2.88;;;;;;;12.96;61.51;99312.69;4975735;28;20039;-75
2023/11/23 01:58:37;;;;;;;6.03;2.92;;;;;;;12.94;61.45;99315.41;4959633;28;20034;-75
2023/11/23 02:01:03;;;;;;;3.47;2.60;;;;;;;12.88;61.50;99310.66;4976759;28;20458;-76
2023/11/23 02:03:29;;;;;;;4.50;2.95;;;;;;;12.91;61.37;99318.28;4975298;28;20039;-76
2023/11/23 02:05:54;;;;;;;5.57;3.00;;;;;;;12.89;61.90;99321.94;4975750;28;20041;-76
2023/11/23 02:08:20;;;;;;;4.22;2.60;;;;;;;12.88;61.80;99322.94;4959240;28;20105;-76
2023/11/23 02:10:45;;;;;;;4.80;2.80;;;;;;;12.88;61.73;99321.13;4976559;28;20490;-76
2023/11/23 02:13:10;;;;;;;3.63;2.28;;;;;;;12.89;61.54;99316.72;4975490;28;20031;-76
2023/11/23 02:15:36;;;;;;;7.38;2.75;;;;;;;12.88;61.96;99323.75;4976430;28;20109;-77
2023/11/23 02:18:02;;;;;;;3.95;2.75;;;;;;;12.87;61.67;99323.88;4975523;28;20083;-76
2023/11/23 02:20:28;;;;;;;3.97;2.63;;;;;;;12.84;61.52;99327.56;4975468;28;20446;-75
2023/11/23 02:22:54;;;;;;;4.57;3.00;;;;;;;12.80;61.68;99326.13;4991227;28;20111;-76
2023/11/23 02:25:19;;;;;;;3.92;2.70;;;;;;;12.82;62.05;99325.06;4975315;28;20042;-75
2023/11/23 02:27:45;;;;;;;4.93;2.63;;;;;;;12.81;61.68;99328.63;4974981;28;20042;-75
2023/11/23 02:30:11;;;;;;;4.22;2.60;;;;;;;12.77;61.84;99315.88;4991281;28;20062;-75
2023/11/23 02:32:36;;;;;;;5.47;2.70;;;;;;;12.76;61.94;99325.53;4991626;28;20030;-76
2023/11/23 02:35:03;;;;;;;2.90;2.30;;;;;;;12.75;61.97;99330.88;4975282;28;20054;-76
2023/11/23 02:37:29;;;;;;;4.65;2.72;;;;;;;12.76;61.91;99327.28;4991127;28;20034;-76
2023/11/23 02:39:54;;;;;;;3.50;2.40;;;;;;;12.78;61.73;99328.88;4974821;28;20027;-76
2023/11/23 02:42:20;;;;;;;3.28;2.30;;;;;;;12.78;62.06;99330.66;4974896;28;20034;-75
2023/11/23 02:44:45;;;;;;;4.28;2.45;;;;;;;12.77;61.82;99327.19;4975880;28;20031;-76
2023/11/23 02:47:11;;;;;;;3.53;2.40;;;;;;;12.75;61.68;99329.09;4958615;28;20031;-76
2023/11/23 02:49:36;;;;;;;3.95;2.38;;;;;;;12.69;61.58;99323.50;4975750;28;20109;-76
2023/11/23 02:52:02;;;;;;;3.80;2.40;;;;;;;12.74;61.62;99337.88;4974754;28;20035;-75
2023/11/23 02:54:28;;;;;;;3.65;2.45;;;;;;;12.71;61.84;99334.69;4974714;28;20031;-75
2023/11/23 02:56:53;;;;;;;4.57;2.75;;;;;;;12.70;61.67;99322.53;4990749;28;20031;-75
2023/11/23 02:59:19;;;;;;;4.43;2.17;;;;;;;12.72;61.72;99334.56;4990037;28;20086;-75
2023/11/23 03:01:44;;;;;;;4.43;2.60;;;;;;;12.71;61.41;99340.75;4974258;28;20470;-76
2023/11/23 03:04:10;;;;;;;3.20;2.08;;;;;;;12.69;61.92;99342.66;4974441;28;20062;-76
2023/11/23 03:06:35;;;;;;;3.58;2.15;;;;;;;12.67;61.62;99347.19;4974311;28;20046;-75
2023/11/23 03:09:01;;;;;;;3.65;2.40;;;;;;;12.65;61.44;99355.16;4990682;28;20038;-76
2023/11/23 03:11:26;;;;;;;3.35;2.10;;;;;;;12.63;61.31;99359.69;4975030;28;20430;-75
2023/11/23 03:13:53;;;;;;;3.63;2.10;;;;;;;12.59;61.47;99357.41;4974737;28;20050;-76
2023/11/23 03:16:18;;;;;;;4.50;2.08;;;;;;;12.61;61.63;99358.94;4958149;28;20487;-75
2023/11/23 03:18:44;;;;;;;3.65;2.38;;;;;;;12.60;61.60;99365.16;4975387;28;20089;-74
2023/11/23 03:21:10;;;;;;;4.00;2.35;;;;;;;12.62;61.53;99375.50;4974349;28;20081;-75
2023/11/23 03:23:36;;;;;;;3.03;2.28;;;;;;;12.56;61.49;99368.09;4990044;28;20070;-74
2023/11/23 03:26:01;;;;;;;4.00;1.95;;;;;;;12.52;61.54;99359.63;4974123;28;20521;-74
2023/11/23 03:28:27;;;;;;;3.80;1.85;;;;;;;12.57;61.41;99375.00;4957888;28;20042;-74
2023/11/23 03:30:53;;;;;;;3.65;2.13;;;;;;;12.57;61.19;99372.38;4974346;28;20105;-73
2023/11/23 03:33:19;;;;;;;3.17;2.15;;;;;;;12.55;61.40;99376.91;4975209;28;20489;-73
2023/11/23 03:35:44;;;;;;;3.15;2.15;;;;;;;12.53;61.01;99371.78;4957683;28;20034;-74
2023/11/23 03:38:10;;;;;;;3.20;1.95;;;;;;;12.49;61.13;99378.19;4974986;28;20043;-74
2023/11/23 03:40:37;;;;;;;2.75;2.03;;;;;;;12.53;61.30;99384.03;4957625;28;20062;-74
2023/11/23 03:43:03;;;;;;;3.22;2.03;;;;;;;12.50;61.29;99387.72;4973441;28;20042;-74
2023/11/23 03:45:28;;;;;;;2.75;1.77;;;;;;;12.45;61.31;99382.00;4967632;28;20031;-75
2023/11/23 03:47:54;;;;;;;3.67;1.83;;;;;;;12.42;60.92;99390.91;4948829;28;20043;-74
2023/11/23 03:50:19;;;;;;;2.83;1.60;;;;;;;12.45;60.98;99392.47;4956201;28;20082;-74
2023/11/23 03:52:45;;;;;;;3.67;2.17;;;;;;;12.40;61.14;99395.41;4955146;29;20467;-74
2023/11/23 03:55:10;;;;;;;3.28;1.83;;;;;;;12.36;61.10;99399.19;4954096;29;20039;-74
2023/11/23 03:57:38;;;;;;;3.25;1.88;;;;;;;12.39;60.92;99409.44;4953940;29;20038;-75
2023/11/23 04:00:05;;;;;;;2.85;1.77;;;;;;;12.37;60.93;99405.28;4970464;28;20031;-74
2023/11/23 04:02:30;;;;;;;2.47;1.70;;;;;;;12.33;61.08;99403.81;4954131;29;20114;-73
2023/11/23 04:04:56;;;;;;;2.92;1.83;;;;;;;12.37;60.97;99413.97;4937879;29;20119;-74
2023/11/23 04:07:21;;;;;;;2.60;1.70;;;;;;;12.35;60.87;99408.03;4954104;29;20054;-75
2023/11/23 04:09:47;;;;;;;3.08;1.90;;;;;;;12.37;60.86;99415.75;4970001;28;20035;-74
2023/11/23 04:12:12;;;;;;;2.85;1.83;;;;;;;12.36;60.94;99420.13;4953543;28;20384;-74
2023/11/23 04:14:38;;;;;;;3.15;1.98;;;;;;;12.30;61.13;99416.22;4954180;29;20066;-75
2023/11/23 04:17:03;;;;;;;2.63;1.75;;;;;;;12.32;61.03;99421.31;4954064;28;20133;-74
2023/11/23 04:19:29;;;;;;;2.42;1.75;;;;;;;12.31;61.21;99422.25;4953915;29;20396;-75
2023/11/23 04:21:54;;;;;;;3.03;1.73;;;;;;;12.25;60.96;99412.25;4953463;29;20398;-75
2023/11/23 04:24:20;;;;;;;3.42;1.85;;;;;;;12.27;61.27;99423.41;4953644;29;20035;-75
2023/11/23 04:26:46;;;;;;;2.60;1.63;;;;;;;12.25;60.88;99425.31;4970155;28;20054;-74
2023/11/23 04:29:11;;;;;;;3.30;2.10;;;;;;;12.22;60.94;99422.94;4953183;29;20487;-74
2023/11/23 04:31:36;;;;;;;3.30;2.00;;;;;;;12.22;61.26;99430.78;4969621;28;20435;-73
2023/11/23 04:34:02;;;;;;;2.60;1.65;;;;;;;12.13;60.90;99414.78;4970129;28;20046;-73
2023/11/23 04:36:30;;;;;;;2.83;1.80;;;;;;;12.16;60.81;99425.97;4969607;28;20487;-79
2023/11/23 04:38:56;;;;;;;2.45;1.70;;;;;;;12.16;61.05;99423.38;4938674;29;20038;-79
2023/11/23 04:41:21;;;;;;;3.53;1.92;;;;;;;12.14;60.90;99415.63;4969880;28;20479;-75
2023/11/23 04:43:49;;;;;;;2.72;1.80;;;;;;;12.13;60.83;99427.88;4969483;28;20032;-73
2023/11/23 04:46:16;;;;;;;5.75;1.40;;;;;;;12.40;66.74;99439.09;4954137;28;20122;-76
2023/11/23 04:48:41;;;;;;;3.13;1.63;;;;;;;12.41;65.14;99431.13;4953461;29;20031;-76
2023/11/23 04:51:07;;;;;;;10.30;2.20;;;;;;;12.45;64.40;99434.34;4953514;28;20355;-73
2023/11/23 04:53:32;;;;;;;13.77;1.98;;;;;;;12.47;64.78;99428.03;4953309;29;20063;-76
2023/11/23 04:55:58;;;;;;;6.75;2.20;;;;;;;12.47;65.60;99417.56;4953304;29;20036;-75
2023/11/23 04:58:24;;;;;;;15.95;1.83;;;;;;;12.54;65.77;99427.59;4953296;28;20039;-75
2023/11/23 05:00:49;;;;;;;4.57;1.80;;;;;;;12.53;65.21;99437.25;4953006;29;20054;-74
2023/11/23 05:03:15;;;;;;;3.80;2.10;;;;;;;12.48;64.90;99434.97;4952948;29;20031;-74
2023/11/23 05:05:40;;;;;;;3.45;2.13;;;;;;;12.49;64.73;99447.13;4936669;29;20082;-76
2023/11/23 05:08:06;;;;;;;4.25;1.80;;;;;;;12.48;64.57;99455.91;4969374;28;20510;-74
2023/11/23 05:10:32;;;;;;;6.13;1.80;;;;;;;12.46;65.21;99442.09;4953129;29;20043;-79
2023/11/23 05:12:57;;;;;;;2.25;1.70;;;;;;;12.48;64.90;99453.28;4937755;28;20062;-79
2023/11/23 05:15:23;;;;;;;6.68;1.70;;;;;;;12.47;64.69;99451.59;4953131;29;20042;-78
2023/11/23 05:17:48;;;;;;;2.50;1.77;;;;;;;12.41;64.67;99441.63;4953518;29;20031;-78
2023/11/23 05:20:14;;;;;;;3.78;2.05;;;;;;;12.43;64.55;99462.41;4953057;29;20054;-78
2023/11/23 05:22:39;;;;;;;5.82;2.20;;;;;;;12.42;64.03;99464.22;4936797;29;20412;-79
2023/11/23 05:25:05;;;;;;;7.70;2.20;;;;;;;12.40;63.85;99463.50;4956916;29;20028;-80
2023/11/23 05:27:31;;;;;;;3.70;2.15;;;;;;;12.39;64.04;99467.03;4956615;29;20035;-77
2023/11/23 05:29:58;;;;;;;3.45;2.00;;;;;;;12.38;63.74;99473.25;4957922;29;20510;-79
2023/11/23 05:32:23;;;;;;;8.57;2.30;;;;;;;12.36;63.44;99482.97;4956537;29;20035;-78
2023/11/23 05:34:49;;;;;;;3.30;1.98;;;;;;;12.35;63.66;99481.31;4958015;29;20142;-80
2023/11/23 05:37:14;;;;;;;2.90;1.80;;;;;;;12.33;63.47;99480.56;4956215;29;20557;-79
2023/11/23 05:39:40;;;;;;;3.75;2.15;;;;;;;12.33;63.44;99479.75;4956969;29;20031;-79
2023/11/23 05:42:06;;;;;;;3.00;2.00;;;;;;;12.27;63.06;99478.41;4958997;29;20035;-78
2023/11/23 05:44:32;;;;;;;5.47;2.10;;;;;;;12.26;63.14;99477.56;4940468;29;20507;-79
2023/11/23 05:46:57;;;;;;;3.92;2.10;;;;;;;12.28;63.05;99488.75;4972560;28;20071;-79
2023/11/23 05:49:23;;;;;;;2.78;1.80;;;;;;;12.29;62.75;99495.69;4956311;29;20035;-79
2023/11/23 05:51:48;;;;;;;4.32;2.15;;;;;;;12.28;62.75;99496.59;4956150;29;20058;-79
2023/11/23 05:54:15;;;;;;;3.78;2.15;;;;;;;12.22;62.79;99494.44;4956358;29;20123;-78
2023/11/23 05:56:41;;;;;;;3.15;2.10;;;;;;;12.28;62.49;99501.84;4940917;29;20039;-79
2023/11/23 05:59:07;;;;;;;3.20;2.10;;;;;;;12.29;62.93;99508.75;4972614;28;20118;-80
2023/11/23 06:01:32;;;;;;;4.63;2.10;;;;;;;12.29;62.52;99502.69;4973087;28;20102;-80
2023/11/23 06:03:58;;;;;;;3.97;2.30;;;;;;;12.23;62.57;99501.34;4940254;29;20514;-79
2023/11/23 06:06:23;;;;;;;3.30;1.95;;;;;;;12.26;62.74;99495.06;4956192;28;20050;-79
2023/11/23 06:08:49;;;;;;;3.10;1.95;;;;;;;12.26;62.72;99492.44;4956246;29;20042;-80
2023/11/23 06:11:16;;;;;;;3.33;2.03;;;;;;;12.31;62.56;99500.81;4957300;29;20031;-79
2023/11/23 06:13:43;;;;;;;4.90;2.33;;;;;;;12.27;62.44;99489.72;4955907;29;20054;-79
2023/11/23 06:16:09;;;;;;;3.58;2.20;;;;;;;12.33;62.29;99503.31;4972479;28;20179;-77
2023/11/23 06:18:35;;;;;;;3.20;1.90;;;;;;;12.34;62.19;99507.63;4971803;28;20035;-80
2023/11/23 06:21:00;;;;;;;4.35;2.20;;;;;;;12.34;62.03;99508.44;4955929;29;20414;-79
2023/11/23 06:23:26;;;;;;;2.63;1.77;;;;;;;12.34;61.69;99500.59;4955469;29;20043;-80
2023/11/23 06:25:52;;;;;;;3.03;1.83;;;;;;;12.37;61.68;99518.69;4956259;29;20043;-79
2023/11/23 06:28:17;;;;;;;4.43;2.10;;;;;;;12.38;61.63;99516.91;4955739;29;20043;-81
2023/11/23 06:30:44;;;;;;;3.40;2.00;;;;;;;12.38;61.66;99530.84;4955722;29;20031;-79
2023/11/23 06:33:10;;;;;;;3.65;2.30;;;;;;;12.38;61.47;99530.84;4955986;29;20028;-79
2023/11/23 06:35:35;;;;;;;3.70;2.10;;;;;;;12.37;61.38;99528.34;4939085;29;20094;-78
2023/11/23 06:38:01;;;;;;;3.40;2.08;;;;;;;12.33;61.36;99529.50;4956585;28;20054;-79
2023/11/23 06:40:28;;;;;;;3.72;2.30;;;;;;;12.35;61.28;99532.84;4939676;29;20129;-79
2023/11/23 06:42:54;;;;;;;3.95;2.20;;;;;;;12.34;61.33;99539.03;4955837;29;20190;-80
2023/11/23 06:45:20;;;;;;;4.63;2.10;;;;;;;12.33;61.24;99543.41;4971409;28;20534;-80
2023/11/23 06:47:46;;;;;;;3.65;2.22;;;;;;;12.33;61.36;99538.16;4971533;28;20033;-80
2023/11/23 06:50:12;;;;;;;3.10;1.98;;;;;;;12.35;61.30;99544.16;4939588;29;20041;-79
2023/11/23 06:52:38;;;;;;;3.58;2.13;;;;;;;12.29;61.33;99534.94;4971664;28;20043;-80
2023/11/23 06:55:05;;;;;;;4.75;2.45;;;;;;;12.34;61.44;99552.13;4939914;29;20135;-84
2023/11/23 06:57:31;;;;;;;4.40;2.15;;;;;;;12.35;61.25;99548.53;4971203;28;20031;-79
2023/11/23 06:59:58;;;;;;;4.93;2.08;;;;;;;12.30;61.29;99552.34;4939593;29;20094;-79
2023/11/23 07:02:24;;;;;;;4.03;2.08;;;;;;;12.31;61.22;99545.31;4939047;29;20035;-78
2023/11/23 07:04:49;;;;;;;3.58;2.30;;;;;;;12.29;60.96;99548.03;4954845;29;20070;-79
2023/11/23 07:07:15;;;;;;;4.65;2.42;;;;;;;12.29;60.96;99540.19;4955169;29;20050;-79
2023/11/23 07:09:40;;;;;;;4.20;2.30;;;;;;;12.26;60.84;99545.63;4955057;29;20039;-82
2023/11/23 07:12:06;;;;;;;3.35;2.17;;;;;;;12.27;60.89;99549.06;4939285;29;20126;-81
2023/11/23 07:14:32;;;;;;;3.90;2.20;;;;;;;12.26;60.71;99542.19;4955181;29;20066;-80
2023/11/23 07:16:57;;;;;;;3.63;2.15;;;;;;;12.29;60.52;99549.81;4970923;28;20479;-80
2023/11/23 07:19:23;;;;;;;3.20;2.10;;;;;;;12.23;60.78;99538.00;4954928;29;20156;-80
2023/11/23 07:21:49;;;;;;;4.45;2.15;;;;;;;12.27;60.79;99546.47;4970781;28;20031;-81
2023/11/23 07:24:15;;;;;;;4.25;2.65;;;;;;;12.22;60.51;99536.31;4955146;29;20031;-80
2023/11/23 07:26:40;;;;;;;5.47;2.40;;;;;;;12.23;60.45;99539.78;4938926;29;20041;-81
2023/11/23 07:29:06;;;;;;;5.20;2.38;;;;;;;12.28;60.54;99554.19;4954896;29;20031;-79
2023/11/23 07:31:31;;;;;;;4.13;2.28;;;;;;;12.27;60.37;99557.78;4939218;29;20479;-79
2023/11/23 07:33:59;;;;;;;5.28;2.40;;;;;;;12.24;60.26;99552.75;4938838;29;20082;-78
2023/11/23 07:36:26;;;;;;;4.90;2.40;;;;;;;12.26;60.17;99553.47;4954779;28;20043;-80
2023/11/23 07:38:52;;;;;;;4.20;2.40;;;;;;;12.21;60.30;99552.97;4970443;28;20066;-81
2023/11/23 07:41:18;;;;;;;4.72;2.70;;;;;;;12.26;60.08;99560.50;4938520;29;20043;-79
2023/11/23 07:43:46;;;;;;;4.35;2.40;;;;;;;12.23;60.28;99552.88;4954563;29;20129;-80
2023/11/23 07:46:11;;;;;;;4.20;2.33;;;;;;;12.25;60.23;99546.56;4938029;29;20082;-80
2023/11/23 07:48:37;;;;;;;4.78;2.35;;;;;;;12.23;60.13;99538.00;4970728;28;20436;-80
2023/11/23 07:51:02;;;;;;;4.22;2.50;;;;;;;12.27;60.10;99543.84;4938354;29;20039;-80
2023/11/23 07:53:30;;;;;;;4.30;2.63;;;;;;;12.28;60.28;99537.66;4939029;29;20095;-78
2023/11/23 07:55:57;;;;;;;5.38;2.28;;;;;;;12.29;59.69;99536.75;4970566;28;20534;-81
2023/11/23 07:58:23;;;;;;;5.22;2.50;;;;;;;12.31;60.11;99537.44;4938377;29;20043;-79
2023/11/23 08:00:49;;;;;;;3.38;2.10;;;;;;;12.36;60.06;99537.97;4954785;28;20061;-79
2023/11/23 08:03:14;;;;;;;6.50;2.03;;;;;;;12.37;59.90;99542.25;4937856;29;20039;-80
2023/11/23 08:05:40;;;;;;;4.20;2.03;;;;;;;12.35;59.86;99536.31;4953952;29;20038;-80
2023/11/23 08:08:05;;;;;;;3.92;2.00;;;;;;;12.42;59.96;99547.16;4938335;28;20039;-79
2023/11/23 08:10:31;;;;;;;4.45;2.28;;;;;;;12.44;59.59;99547.88;4953787;29;20110;-79
2023/11/23 08:12:58;;;;;;;4.93;2.17;;;;;;;12.43;59.46;99547.06;4938198;29;20086;-81
2023/11/23 08:15:24;;;;;;;4.43;2.30;;;;;;;12.43;59.55;99559.28;4953818;29;20060;-79
2023/11/23 08:17:50;;;;;;;3.60;2.10;;;;;;;12.40;59.73;99552.50;4953922;29;20027;-78
2023/11/23 08:20:16;;;;;;;4.40;1.98;;;;;;;12.39;59.92;99548.22;4937740;29;20399;-79
2023/11/23 08:22:41;;;;;;;3.97;2.05;;;;;;;12.41;59.63;99556.81;4937611;29;20059;-80
2023/11/23 08:25:07;;;;;;;4.72;2.10;;;;;;;12.38;59.66;99543.94;4954073;29;20024;-78
2023/11/23 08:27:33;;;;;;;5.50;2.13;;;;;;;12.41;59.86;99554.19;4953958;29;20027;-81
2023/11/23 08:29:58;;;;;;;3.85;2.00;;;;;;;12.38;59.72;99564.88;4969848;28;20475;-79
2023/11/23 08:32:24;;;;;;;6.55;2.10;;;;;;;12.41;59.92;99556.81;4954400;29;20063;-80
2023/11/23 08:34:49;;;;;;;3.97;2.38;;;;;;;12.40;59.91;99552.50;4953909;28;20028;-80
2023/11/23 08:37:15;;;;;;;3.75;2.30;;;;;;;12.40;59.79;99549.06;4937846;29;20607;-80
2023/11/23 08:39:41;;;;;;;4.18;2.15;;;;;;;12.40;59.83;99557.75;4938193;29;20046;-78
2023/11/23 08:42:06;;;;;;;3.33;2.00;;;;;;;12.41;59.85;99556.81;4938578;28;20067;-80
2023/11/23 08:44:32;;;;;;;4.28;2.10;;;;;;;12.42;59.78;99548.00;4937963;29;20470;-79
2023/11/23 08:46:58;;;;;;;3.38;1.80;;;;;;;12.45;59.84;99545.16;4954176;29;20546;-79
2023/11/23 08:49:25;;;;;;;2.92;1.80;;;;;;;12.43;59.49;99544.44;4953721;29;20031;-79
2023/11/23 08:51:51;;;;;;;4.13;2.15;;;;;;;12.43;59.88;99544.44;4953949;29;20035;-80
2023/11/23 08:54:17;;;;;;;4.07;2.40;;;;;;;12.42;59.95;99545.38;4953742;29;20054;-79
2023/11/23 08:56:43;;;;;;;3.00;2.10;;;;;;;12.41;59.53;99535.88;4937477;29;20459;-80
2023/11/23 08:59:10;;;;;;;4.70;2.03;;;;;;;12.38;59.81;99525.63;4937304;29;20027;-80
2023/11/23 09:01:36;;;;;;;3.80;2.03;;;;;;;12.35;59.70;99520.59;4937295;29;20066;-80
2023/11/23 09:04:01;;;;;;;5.30;2.10;;;;;;;12.39;59.71;99534.28;4952922;29;20059;-80
2023/11/23 09:06:27;;;;;;;3.83;1.92;;;;;;;12.38;59.62;99532.63;4952991;29;20039;-80
2023/11/23 09:08:52;;;;;;;2.95;1.70;;;;;;;12.40;59.70;99536.81;4952807;29;20031;-80
2023/11/23 09:11:18;;;;;;;3.75;2.22;;;;;;;12.39;59.80;99536.91;4953134;29;20038;-79
2023/11/23 09:13:43;;;;;;;4.47;2.17;;;;;;;12.40;59.83;99538.59;4936885;29;20020;-80
2023/11/23 09:16:11;;;;;;;3.42;2.10;;;;;;;12.36;59.76;99524.03;4937110;29;20031;-79
2023/11/23 09:18:36;;;;;;;3.58;2.10;;;;;;;12.39;59.80;99535.13;4952895;29;20152;-81
2023/11/23 09:21:03;;;;;;;3.17;1.80;;;;;;;12.38;59.64;99537.84;4937052;29;20047;-80
2023/11/23 09:23:28;;;;;;;3.28;2.00;;;;;;;12.38;59.85;99532.63;4952982;29;20051;-79
2023/11/23 09:25:54;;;;;;;4.10;2.05;;;;;;;12.37;59.71;99539.63;4953174;29;20046;-79
2023/11/23 09:28:21;;;;;;;3.53;2.10;;;;;;;12.34;59.76;99539.84;4953074;29;20042;-80
2023/11/23 09:30:46;;;;;;;3.30;1.95;;;;;;;12.38;59.46;99537.84;4936923;29;20031;-79
2023/11/23 09:33:12;;;;;;;5.57;2.20;;;;;;;12.38;59.50;99532.63;4952796;29;20050;-78
2023/11/23 09:35:38;;;;;;;3.38;2.10;;;;;;;12.33;59.30;99526.88;4952749;29;20038;-79
2023/11/23 09:38:04;;;;;;;3.40;1.70;;;;;;;12.29;59.80;99521.03;4937424;28;20491;-79
2023/11/23 09:40:30;;;;;;;3.80;2.00;;;;;;;12.25;59.54;99509.91;4937046;29;20562;-79
2023/11/23 09:42:56;;;;;;;3.30;2.17;;;;;;;12.30;59.45;99517.44;4952726;29;20089;-81
2023/11/23 09:45:22;;;;;;;4.70;2.25;;;;;;;12.29;59.39;99511.38;4969167;28;20035;-81
2023/11/23 09:47:48;;;;;;;4.30;2.13;;;;;;;12.33;59.36;99513.78;4968863;28;20114;-80
2023/11/23 09:50:13;;;;;;;3.03;1.98;;;;;;;12.31;59.30;99519.13;4953376;29;20122;-80
2023/11/23 09:52:39;;;;;;;4.20;2.00;;;;;;;12.33;59.36;99521.63;4937453;29;20071;-79
2023/11/23 09:55:07;;;;;;;3.58;2.03;;;;;;;12.31;59.43;99519.13;4937112;29;20506;-80
2023/11/23 09:57:32;;;;;;;3.87;2.03;;;;;;;12.30;59.32;99506.97;4968425;28;20027;-83
2023/11/23 09:59:58;;;;;;;4.35;1.80;;;;;;;12.25;59.26;99490.75;4936784;29;20263;-81
2023/11/23 10:02:24;;;;;;;3.63;2.10;;;;;;;12.30;59.46;99505.22;4936814;29;20038;-79
2023/11/23 10:04:50;;;;;;;5.28;2.30;;;;;;;12.27;59.47;99487.09;4937023;29;20086;-80
2023/11/23 10:07:16;;;;;;;2.53;1.67;;;;;;;12.30;59.47;99486.03;4952773;29;20035;-80
2023/11/23 10:09:42;;;;;;;3.25;2.08;;;;;;;12.33;59.53;99485.81;4954366;28;20035;-81
2023/11/23 10:12:08;;;;;;;3.13;1.80;;;;;;;12.29;59.54;99473.91;4940878;28;20043;-81
2023/11/23 10:14:33;;;;;;;2.83;1.85;;;;;;;12.33;59.14;99472.72;4956513;28;20024;-79
2023/11/23 10:16:59;;;;;;;3.42;1.88;;;;;;;12.29;59.08;99466.06;4940196;29;20051;-80
2023/11/23 10:19:24;;;;;;;3.08;1.90;;;;;;;12.30;59.14;99471.19;4972224;28;20046;-80
2023/11/23 10:21:58;;;;;;;4.30;1.95;;;;;;;12.31;59.39;99472.84;4956228;29;20079;-80
2023/11/23 10:24:24;;;;;;;4.93;2.10;;;;;;;12.34;59.09;99466.56;4940548;29;20031;-82
2023/11/23 10:26:51;;;;;;;3.85;1.80;;;;;;;12.37;59.46;99460.28;4956267;29;20042;-80
2023/11/23 10:29:18;;;;;;;3.20;1.90;;;;;;;12.34;59.27;99448.22;4961903;29;20023;-82
2023/11/23 10:31:43;;;;;;;3.22;1.85;;;;;;;12.42;59.38;99448.50;4978564;28;20037;-80
2023/11/23 10:34:09;;;;;;;3.22;1.80;;;;;;;12.42;59.01;99435.41;4945352;29;20035;-81
2023/11/23 10:36:36;;;;;;;3.35;2.05;;;;;;;12.50;59.08;99437.47;4959470;29;20039;-80
2023/11/23 10:39:02;;;;;;;2.95;1.92;;;;;;;12.47;58.97;99424.59;4956242;29;20038;-82
2023/11/23 10:41:27;;;;;;;3.40;1.90;;;;;;;12.53;58.51;99434.63;4939794;29;20113;-81
2023/11/23 10:43:53;;;;;;;2.63;1.75;;;;;;;12.56;58.69;99434.41;4939650;29;20440;-81
2023/11/23 10:46:18;;;;;;;4.93;2.15;;;;;;;12.57;58.47;99424.75;4939833;28;20439;-80
2023/11/23 10:48:45;;;;;;;4.95;2.20;;;;;;;12.57;58.36;99414.28;4972272;28;20491;-80
2023/11/23 10:51:10;;;;;;;2.80;1.80;;;;;;;12.64;58.13;99416.34;4972279;28;20038;-81
2023/11/23 10:53:36;;;;;;;3.13;2.10;;;;;;;12.65;58.44;99425.03;4955972;29;20414;-80
2023/11/23 10:56:05;;;;;;;3.60;2.20;;;;;;;12.65;58.17;99428.50;4955320;29;20510;-80
2023/11/23 10:58:37;;;;;;;3.97;2.17;;;;;;;12.71;57.73;99429.81;4955623;28;20074;-82
2023/11/23 11:01:04;;;;;;;2.85;2.10;;;;;;;12.74;58.28;99421.72;4939963;29;20074;-80
2023/11/23 11:03:29;;;;;;;3.25;2.08;;;;;;;12.76;58.00;99409.38;4971375;28;20035;-84
2023/11/23 11:05:55;;;;;;;3.03;2.28;;;;;;;12.73;57.80;99391.25;4971223;28;20411;-79
2023/11/23 11:08:26;;;;;;;2.80;2.00;;;;;;;12.79;57.99;99396.03;4939483;29;20035;-82
2023/11/23 11:10:53;;;;;;;3.67;2.30;;;;;;;12.80;57.72;99402.09;4955403;29;20050;-80
2023/11/23 11:13:23;;;;;;;3.35;1.92;;;;;;;12.79;57.75;99398.66;4939222;29;20031;-79
2023/11/23 11:15:53;;;;;;;3.40;2.22;;;;;;;12.76;57.62;99383.16;4939366;29;20090;-80
2023/11/23 11:18:29;;;;;;;3.15;2.13;;;;;;;12.73;57.76;99374.69;4938809;29;20047;-79
2023/11/23 11:21:08;;;;;;;3.00;1.92;;;;;;;12.73;57.81;99375.53;4938365;29;20078;-81
2023/11/23 11:23:41;;;;;;;2.42;2.00;;;;;;;12.76;57.72;99374.44;4954916;29;20051;-80
2023/11/23 11:26:28;;;;;;;3.30;2.13;;;;;;;12.73;57.59;99362.44;4938994;29;20501;-80
2023/11/23 11:28:58;;;;;;;2.75;2.05;;;;;;;12.76;57.63;99358.72;4955425;29;20027;-80